createdAt,value
2022-08-26T00:02:17.357Z,21.30
2022-08-26T00:04:50.063Z,21.30
2022-08-26T00:07:18.870Z,21.30
2022-08-26T00:09:47.423Z,21.20
2022-08-26T00:12:15.703Z,21.20
2022-08-26T00:14:43.871Z,21.20
2022-08-26T00:17:12.304Z,21.20
2022-08-26T00:19:40.416Z,21.20
2022-08-26T00:22:12.535Z,21.20
2022-08-26T00:24:48.295Z,21.20
2022-08-26T00:27:16.356Z,21.20
2022-08-26T00:29:45.360Z,21.10
2022-08-26T00:32:13.489Z,21.10
2022-08-26T00:34:42.399Z,21.10
2022-08-26T00:37:15.658Z,21.10
2022-08-26T00:39:44.233Z,21.10
2022-08-26T00:42:13.936Z,21.10
2022-08-26T00:44:42.061Z,21.10
2022-08-26T00:47:17.474Z,21.10
2022-08-26T00:49:48.534Z,21.20
2022-08-26T00:52:21.247Z,21.10
2022-08-26T00:54:57.876Z,21.10
2022-08-26T00:57:26.133Z,21.10
2022-08-26T00:59:57.429Z,21.00
2022-08-26T01:02:25.887Z,21.00
2022-08-26T01:04:59.858Z,21.00
2022-08-26T01:07:31.328Z,21.00
2022-08-26T01:10:01.032Z,21.00
2022-08-26T01:12:32.354Z,21.00
2022-08-26T01:15:02.101Z,21.00
2022-08-26T01:17:30.174Z,21.00
2022-08-26T01:20:08.688Z,21.00
2022-08-26T01:22:47.244Z,21.00
2022-08-26T01:25:16.021Z,21.00
2022-08-26T01:27:44.898Z,21.00
2022-08-26T01:30:17.832Z,21.00
2022-08-26T01:32:46.725Z,21.00
2022-08-26T01:35:14.782Z,20.90
2022-08-26T01:37:44.678Z,20.90
2022-08-26T01:40:19.409Z,20.80
2022-08-26T01:42:49.124Z,20.80
2022-08-26T01:45:22.245Z,20.80
2022-08-26T01:47:56.834Z,20.90
2022-08-26T01:50:30.693Z,20.90
2022-08-26T01:53:03.770Z,20.90
2022-08-26T01:55:34.039Z,20.80
2022-08-26T01:58:07.080Z,20.80
2022-08-26T02:00:36.372Z,20.70
2022-08-26T02:03:21.446Z,20.80
2022-08-26T02:05:56.107Z,20.70
2022-08-26T02:08:29.801Z,20.80
2022-08-26T02:10:58.566Z,20.70
2022-08-26T02:13:29.994Z,20.70
2022-08-26T02:15:58.898Z,20.70
2022-08-26T02:18:28.639Z,20.70
2022-08-26T02:20:58.053Z,20.70
2022-08-26T02:23:27.507Z,20.70
2022-08-26T02:26:01.028Z,20.70
2022-08-26T02:28:34.360Z,20.70
2022-08-26T02:31:02.783Z,20.60
2022-08-26T02:33:31.264Z,20.70
2022-08-26T02:35:59.322Z,20.70
2022-08-26T02:38:29.447Z,20.70
2022-08-26T02:40:57.756Z,20.60
2022-08-26T02:43:31.347Z,20.60
2022-08-26T02:46:02.293Z,20.50
2022-08-26T02:48:30.785Z,20.50
2022-08-26T02:51:00.299Z,20.50
2022-08-26T02:53:32.084Z,20.60
2022-08-26T02:56:04.314Z,20.50
2022-08-26T02:58:32.449Z,20.50
2022-08-26T03:01:01.568Z,20.50
2022-08-26T03:03:33.396Z,20.50
2022-08-26T03:06:01.525Z,20.40
2022-08-26T03:08:30.881Z,20.40
2022-08-26T03:10:59.282Z,20.30
2022-08-26T03:13:29.927Z,20.30
2022-08-26T03:15:57.983Z,20.30
2022-08-26T03:18:26.876Z,20.30
2022-08-26T03:20:54.952Z,20.20
2022-08-26T03:23:23.422Z,20.20
2022-08-26T03:25:54.074Z,20.20
2022-08-26T03:28:22.192Z,20.20
2022-08-26T03:30:49.271Z,20.20
2022-08-26T03:33:19.059Z,20.30
2022-08-26T03:35:50.501Z,20.30
2022-08-26T03:38:19.937Z,20.20
2022-08-26T03:40:48.074Z,20.20
2022-08-26T03:43:18.429Z,20.30
2022-08-26T03:45:46.485Z,20.20
2022-08-26T03:48:14.956Z,20.30
2022-08-26T03:50:43.618Z,20.20
2022-08-26T03:53:13.130Z,20.20
2022-08-26T03:55:42.256Z,20.20
2022-08-26T03:58:11.374Z,20.20
2022-08-26T04:00:40.762Z,20.20
2022-08-26T04:06:09.329Z,20.20
2022-08-26T04:08:37.835Z,20.20
2022-08-26T04:11:07.220Z,20.20
2022-08-26T04:13:35.615Z,20.20
2022-08-26T04:16:05.422Z,20.20
2022-08-26T04:18:37.025Z,20.20
2022-08-26T04:21:07.900Z,20.20
2022-08-26T04:23:47.038Z,20.20
2022-08-26T04:26:16.282Z,20.10
2022-08-26T04:28:44.321Z,20.20
2022-08-26T04:31:15.562Z,20.10
2022-08-26T04:33:44.236Z,20.10
2022-08-26T04:36:15.303Z,20.10
2022-08-26T04:38:44.543Z,20.10
2022-08-26T04:41:14.955Z,20.20
2022-08-26T04:43:43.983Z,20.20
2022-08-26T04:46:14.593Z,20.20
2022-08-26T04:48:44.014Z,20.20
2022-08-26T04:51:12.533Z,20.20
2022-08-26T04:53:40.767Z,20.20
2022-08-26T04:56:09.330Z,20.30
2022-08-26T04:58:38.250Z,20.30
2022-08-26T05:01:08.304Z,20.20
2022-08-26T05:03:38.170Z,20.30
2022-08-26T05:06:09.445Z,20.30
2022-08-26T05:08:37.520Z,20.40
2022-08-26T05:11:07.434Z,20.40
2022-08-26T05:13:39.158Z,20.40
2022-08-26T05:16:11.639Z,20.40
2022-08-26T05:18:43.474Z,20.50
2022-08-26T05:21:19.998Z,20.50
2022-08-26T05:23:49.067Z,20.60
2022-08-26T05:26:18.028Z,20.60
2022-08-26T05:28:51.223Z,20.70
2022-08-26T05:31:26.315Z,20.70
2022-08-26T05:33:56.792Z,20.80
2022-08-26T05:36:27.123Z,20.80
2022-08-26T05:38:55.671Z,20.90
2022-08-26T05:41:34.425Z,20.90
2022-08-26T05:44:06.430Z,21.00
2022-08-26T05:46:35.578Z,21.00
2022-08-26T05:49:06.054Z,21.10
2022-08-26T05:51:42.128Z,21.10
2022-08-26T05:54:10.484Z,21.20
2022-08-26T05:56:39.053Z,21.20
2022-08-26T05:59:14.136Z,21.20
2022-08-26T06:01:43.878Z,21.30
2022-08-26T06:04:13.757Z,21.40
2022-08-26T06:06:43.032Z,21.50
2022-08-26T06:09:13.131Z,21.60
2022-08-26T06:11:41.126Z,21.60
2022-08-26T06:14:11.728Z,21.70
2022-08-26T06:16:43.784Z,21.80
2022-08-26T06:19:17.237Z,21.90
2022-08-26T06:21:54.122Z,21.90
2022-08-26T06:24:40.166Z,22.00
2022-08-26T06:27:09.971Z,22.10
2022-08-26T06:29:39.805Z,22.20
2022-08-26T06:32:08.680Z,22.20
2022-08-26T06:34:38.366Z,22.30
2022-08-26T06:37:07.186Z,22.40
2022-08-26T06:39:35.461Z,22.60
2022-08-26T06:42:08.635Z,22.70
2022-08-26T06:44:39.015Z,22.80
2022-08-26T06:47:09.053Z,22.90
2022-08-26T06:49:38.513Z,23.00
2022-08-26T06:52:07.883Z,23.10
2022-08-26T06:54:37.027Z,23.10
2022-08-26T06:57:07.137Z,23.20
2022-08-26T06:59:35.158Z,23.30
2022-08-26T07:02:03.469Z,23.30
2022-08-26T07:04:31.685Z,23.40
2022-08-26T07:07:01.401Z,23.50
2022-08-26T07:09:33.131Z,23.70
2022-08-26T07:12:01.793Z,23.80
2022-08-26T07:14:31.660Z,23.90
2022-08-26T07:17:01.322Z,24.00
2022-08-26T07:19:31.417Z,24.00
2022-08-26T07:22:04.032Z,24.10
2022-08-26T07:24:33.606Z,24.10
2022-08-26T07:27:05.804Z,24.10
2022-08-26T07:29:34.522Z,24.20
2022-08-26T07:32:03.346Z,24.20
2022-08-26T07:34:32.224Z,24.30
2022-08-26T07:37:02.773Z,24.30
2022-08-26T07:39:32.332Z,24.30
2022-08-26T07:42:01.667Z,24.40
2022-08-26T07:44:36.147Z,24.40
2022-08-26T07:47:10.366Z,24.40
2022-08-26T07:49:52.990Z,24.40
2022-08-26T07:52:26.608Z,24.40
2022-08-26T07:54:55.995Z,24.40
2022-08-26T07:57:24.426Z,24.40
2022-08-26T07:59:54.018Z,24.40
2022-08-26T08:02:24.292Z,24.50
2022-08-26T08:04:53.142Z,24.50
2022-08-26T08:07:21.696Z,24.50
2022-08-26T08:10:09.954Z,24.50
2022-08-26T08:12:39.886Z,24.50
2022-08-26T08:15:09.869Z,24.60
2022-08-26T08:17:38.286Z,24.60
2022-08-26T08:20:07.672Z,24.70
2022-08-26T08:22:36.050Z,24.80
2022-08-26T08:25:08.037Z,25.00
2022-08-26T08:27:39.837Z,25.20
2022-08-26T08:30:10.049Z,25.30
2022-08-26T08:32:43.501Z,25.50
2022-08-26T08:35:13.503Z,25.50
2022-08-26T08:37:43.643Z,25.60
2022-08-26T08:40:14.071Z,25.70
2022-08-26T08:42:48.874Z,25.70
2022-08-26T08:45:21.215Z,25.70
2022-08-26T08:47:53.019Z,25.80
2022-08-26T08:50:27.355Z,25.80
2022-08-26T08:53:05.801Z,25.80
2022-08-26T08:55:51.842Z,25.90
2022-08-26T08:58:28.221Z,25.90
2022-08-26T09:01:03.010Z,26.00
2022-08-26T09:03:44.049Z,26.10
2022-08-26T09:06:18.975Z,26.20
2022-08-26T09:12:36.170Z,26.50
2022-08-26T09:15:22.538Z,26.80
2022-08-26T09:18:00.058Z,26.90
2022-08-26T09:20:39.441Z,27.10
2022-08-26T09:23:07.915Z,27.40
2022-08-26T09:25:46.999Z,27.60
2022-08-26T09:28:18.806Z,27.90
2022-08-26T09:30:59.357Z,28.20
2022-08-26T09:33:30.374Z,28.50
2022-08-26T09:36:15.255Z,28.60
2022-08-26T09:38:44.182Z,28.70
2022-08-26T09:41:24.736Z,28.80
2022-08-26T09:44:15.774Z,28.80
2022-08-26T09:46:55.555Z,28.80
2022-08-26T09:49:36.027Z,28.80
2022-08-26T09:52:16.322Z,28.80
2022-08-26T09:54:46.162Z,28.90
2022-08-26T09:57:21.095Z,29.00
2022-08-26T09:59:51.049Z,29.10
2022-08-26T10:02:38.371Z,29.20
2022-08-26T10:05:11.346Z,29.30
2022-08-26T10:08:26.955Z,29.30
2022-08-26T10:10:57.581Z,29.20
2022-08-26T10:13:34.373Z,29.00
2022-08-26T10:16:15.551Z,28.90
2022-08-26T10:18:50.882Z,29.00
2022-08-26T10:21:24.865Z,29.00
2022-08-26T10:23:56.928Z,29.00
2022-08-26T10:26:29.160Z,29.10
2022-08-26T10:29:06.241Z,29.10
2022-08-26T10:31:40.491Z,29.10
2022-08-26T10:34:12.497Z,29.20
2022-08-26T10:37:14.488Z,29.20
2022-08-26T10:39:49.463Z,29.20
2022-08-26T10:42:29.111Z,29.50
2022-08-26T10:45:03.164Z,29.70
2022-08-26T10:47:38.320Z,29.90
2022-08-26T10:50:08.597Z,30.10
2022-08-26T10:52:51.048Z,30.20
2022-08-26T10:55:28.556Z,30.30
2022-08-26T10:58:06.501Z,30.30
2022-08-26T11:01:00.936Z,30.30
2022-08-26T11:03:37.835Z,30.20
2022-08-26T11:06:24.812Z,30.30
2022-08-26T11:08:55.434Z,30.30
2022-08-26T11:11:51.341Z,30.40
2022-08-26T11:14:46.099Z,30.50
2022-08-26T11:17:56.611Z,30.50
2022-08-26T11:20:39.135Z,30.40
2022-08-26T11:23:50.606Z,30.40
2022-08-26T11:26:36.150Z,30.40
2022-08-26T11:29:13.205Z,30.50
2022-08-26T11:31:55.990Z,30.50
2022-08-26T11:34:54.099Z,30.40
2022-08-26T11:37:27.361Z,30.50
2022-08-26T11:39:57.849Z,30.60
2022-08-26T11:42:34.327Z,30.70
2022-08-26T11:45:14.301Z,30.70
2022-08-26T11:47:42.626Z,30.80
2022-08-26T11:50:14.501Z,30.70
2022-08-26T11:52:51.323Z,30.60
2022-08-26T11:55:23.224Z,30.60
2022-08-26T11:57:55.416Z,30.60
2022-08-26T12:00:26.456Z,30.60
2022-08-26T12:02:55.625Z,30.60
2022-08-26T12:05:29.529Z,30.70
2022-08-26T12:08:03.731Z,30.70
2022-08-26T12:10:34.834Z,30.80
2022-08-26T12:13:05.322Z,30.90
2022-08-26T12:15:35.608Z,30.80
2022-08-26T12:18:20.636Z,30.90
2022-08-26T12:21:00.596Z,31.00
2022-08-26T12:23:41.937Z,31.00
2022-08-26T12:26:20.860Z,31.00
2022-08-26T12:28:51.881Z,31.10
2022-08-26T12:31:41.811Z,31.20
2022-08-26T12:34:17.991Z,31.30
2022-08-26T12:36:49.755Z,31.30
2022-08-26T12:39:27.820Z,31.30
2022-08-26T12:41:59.042Z,31.10
2022-08-26T12:44:54.207Z,30.90
2022-08-26T12:47:36.922Z,30.60
2022-08-26T12:50:17.479Z,30.40
2022-08-26T12:52:57.678Z,30.20
2022-08-26T12:55:27.678Z,30.00
2022-08-26T12:58:13.416Z,29.80
2022-08-26T13:00:43.365Z,29.60
2022-08-26T13:03:43.287Z,29.40
2022-08-26T13:06:15.646Z,29.30
2022-08-26T13:08:45.742Z,29.10
2022-08-26T13:11:20.053Z,29.00
2022-08-26T13:13:51.632Z,28.80
2022-08-26T13:16:20.379Z,28.70
2022-08-26T13:18:49.497Z,28.60
2022-08-26T13:21:19.926Z,28.50
2022-08-26T13:23:48.325Z,28.30
2022-08-26T13:26:16.763Z,28.30
2022-08-26T13:28:44.879Z,28.10
2022-08-26T13:31:18.146Z,27.80
2022-08-26T13:33:47.037Z,27.30
2022-08-26T13:36:17.426Z,27.10
2022-08-26T13:38:48.330Z,26.80
2022-08-26T13:41:28.888Z,26.40
2022-08-26T13:43:59.553Z,26.00
2022-08-26T13:46:29.704Z,25.40
2022-08-26T13:48:58.452Z,24.80
2022-08-26T13:51:28.166Z,24.20
2022-08-26T14:33:42.340Z,22.90
2022-08-26T14:36:25.100Z,23.10
2022-08-26T14:38:54.100Z,22.80
2022-08-26T14:41:23.921Z,23.00
2022-08-26T14:43:57.893Z,23.00
2022-08-26T14:46:34.601Z,23.00
2022-08-26T14:49:07.280Z,23.10
2022-08-26T14:51:38.013Z,23.20
2022-08-26T14:54:16.163Z,23.20
2022-08-26T14:56:48.503Z,23.20
2022-08-26T14:59:19.318Z,23.10
2022-08-26T15:01:47.807Z,23.10
2022-08-26T15:04:17.719Z,23.10
2022-08-26T15:06:46.152Z,23.20
2022-08-26T15:09:14.879Z,23.20
2022-08-26T15:11:43.115Z,23.10
2022-08-26T15:14:14.681Z,23.10
2022-08-26T15:16:49.106Z,23.00
2022-08-26T15:19:18.784Z,23.10
2022-08-26T15:21:47.857Z,23.20
2022-08-26T15:24:17.039Z,23.20
2022-08-26T15:26:45.870Z,23.10
2022-08-26T15:29:14.370Z,23.10
2022-08-26T15:31:43.060Z,23.10
2022-08-26T15:34:16.456Z,23.10
2022-08-26T15:36:48.155Z,23.00
2022-08-26T15:39:18.088Z,22.90
2022-08-26T15:41:46.263Z,22.90
2022-08-26T15:44:57.575Z,22.90
2022-08-26T15:47:25.592Z,22.90
2022-08-26T15:49:53.670Z,22.90
2022-08-26T15:52:23.095Z,23.00
2022-08-26T15:54:51.405Z,23.00
2022-08-26T15:57:19.833Z,22.90
2022-08-26T15:59:48.376Z,22.90
2022-08-26T16:02:16.554Z,22.90
2022-08-26T16:04:44.646Z,22.80
2022-08-26T16:07:13.545Z,22.80
2022-08-26T16:09:42.986Z,22.70
2022-08-26T16:12:11.106Z,22.70
2022-08-26T16:14:42.002Z,22.70
2022-08-26T16:17:10.055Z,22.60
2022-08-26T16:19:38.244Z,22.60
2022-08-26T16:22:09.124Z,22.60
2022-08-26T16:24:37.662Z,22.60
2022-08-26T16:27:08.609Z,22.60
2022-08-26T16:29:39.315Z,22.60
2022-08-26T16:32:08.878Z,22.70
2022-08-26T16:34:36.947Z,22.80
2022-08-26T16:37:05.040Z,22.80
2022-08-26T16:39:33.495Z,22.80
2022-08-26T16:42:09.931Z,22.70
2022-08-26T16:44:45.321Z,22.60
2022-08-26T16:47:14.191Z,22.50
2022-08-26T16:49:43.134Z,22.50
2022-08-26T16:52:14.126Z,22.40
2022-08-26T16:54:42.455Z,22.40
2022-08-26T16:57:14.325Z,22.30
2022-08-26T16:59:42.752Z,22.10
2022-08-26T17:02:11.772Z,22.00
2022-08-26T17:04:41.137Z,22.00
2022-08-26T17:07:14.176Z,22.10
2022-08-26T17:09:43.072Z,22.10
2022-08-26T17:12:12.502Z,22.10
2022-08-26T17:14:40.596Z,22.10
2022-08-26T17:17:08.772Z,22.20
2022-08-26T17:19:41.073Z,22.20
2022-08-26T17:22:15.199Z,22.20
2022-08-26T17:24:43.334Z,22.20
2022-08-26T17:27:12.855Z,22.20
2022-08-26T17:29:41.027Z,22.20
2022-08-26T17:32:09.098Z,22.20
2022-08-26T17:34:37.143Z,22.10
2022-08-26T17:37:05.415Z,22.20
2022-08-26T17:39:33.456Z,22.20
2022-08-26T17:42:01.512Z,22.20
2022-08-26T17:44:30.935Z,22.10
2022-08-26T17:46:58.974Z,22.10
2022-08-26T17:49:27.354Z,22.00
2022-08-26T17:51:57.992Z,22.00
2022-08-26T17:54:27.706Z,22.10
2022-08-26T17:56:58.268Z,22.20
2022-08-26T17:59:30.539Z,22.20
2022-08-26T18:02:00.288Z,22.20
2022-08-26T18:04:28.500Z,22.10
2022-08-26T18:06:56.605Z,22.10
2022-08-26T18:09:24.652Z,22.00
2022-08-26T18:11:52.778Z,22.00
2022-08-26T18:14:21.759Z,22.00
2022-08-26T18:16:50.968Z,22.10
2022-08-26T18:19:20.473Z,22.10
2022-08-26T18:21:48.537Z,22.00
2022-08-26T18:24:16.602Z,21.90
2022-08-26T18:26:48.880Z,21.90
2022-08-26T18:29:18.186Z,21.90
2022-08-26T18:31:46.677Z,21.90
2022-08-26T18:34:16.082Z,21.90
2022-08-26T18:36:45.634Z,21.80
2022-08-26T18:39:15.341Z,21.80
2022-08-26T18:41:45.770Z,21.80
2022-08-26T18:44:16.192Z,21.90
2022-08-26T18:46:46.503Z,21.90
2022-08-26T18:49:16.544Z,21.90
2022-08-26T18:51:46.593Z,21.90
2022-08-26T18:54:15.697Z,21.80
2022-08-26T18:56:43.890Z,21.80
2022-08-26T18:59:13.539Z,21.80
2022-08-26T19:01:42.621Z,21.80
2022-08-26T19:04:15.321Z,21.80
2022-08-26T19:06:46.941Z,21.80
2022-08-26T19:09:17.853Z,21.90
2022-08-26T19:11:46.999Z,21.90
2022-08-26T19:14:18.398Z,21.80
2022-08-26T19:16:49.618Z,21.80
2022-08-26T19:19:18.244Z,21.80
2022-08-26T19:21:47.789Z,21.70
2022-08-26T19:24:17.752Z,21.70
2022-08-26T19:26:47.340Z,21.70
2022-08-26T19:31:44.931Z,21.70
2022-08-26T19:34:18.249Z,21.60
2022-08-26T19:36:53.039Z,21.60
2022-08-26T19:39:21.317Z,21.50
2022-08-26T19:41:49.780Z,21.40
2022-08-26T19:44:39.912Z,21.30
2022-08-26T19:47:10.263Z,21.30
2022-08-26T19:49:38.915Z,21.30
2022-08-26T19:52:08.832Z,21.30
2022-08-26T19:54:36.872Z,21.40
2022-08-26T19:57:05.898Z,21.40
2022-08-26T19:59:35.351Z,21.40
2022-08-26T20:02:07.117Z,21.50
2022-08-26T20:04:38.262Z,21.60
2022-08-26T20:07:09.011Z,21.60
2022-08-26T20:09:38.382Z,21.60
2022-08-26T20:12:07.856Z,21.60
2022-08-26T20:14:36.432Z,21.60
2022-08-26T20:17:05.165Z,21.60
2022-08-26T20:19:50.891Z,21.60
2022-08-26T20:22:20.967Z,21.60
2022-08-26T20:24:49.808Z,21.60
2022-08-26T20:27:18.041Z,21.60
2022-08-26T20:29:46.096Z,21.60
2022-08-26T20:32:14.219Z,21.50
2022-08-26T20:34:42.667Z,21.50
2022-08-26T20:37:10.883Z,21.40
2022-08-26T20:39:40.395Z,21.40
2022-08-26T20:42:20.055Z,21.40
2022-08-26T20:44:54.374Z,21.30
2022-08-26T20:47:23.628Z,21.30
2022-08-26T20:49:52.308Z,21.30
2022-08-26T20:52:21.342Z,21.30
2022-08-26T20:54:50.777Z,21.20
2022-08-26T20:57:19.036Z,21.20
2022-08-26T20:59:47.158Z,21.10
2022-08-26T21:02:15.257Z,21.10
2022-08-26T21:04:43.462Z,21.10
2022-08-26T21:07:11.578Z,21.20
2022-08-26T21:09:39.728Z,21.20
2022-08-26T21:12:09.386Z,21.20
2022-08-26T21:14:37.501Z,21.20
2022-08-26T21:17:05.913Z,21.10
2022-08-26T21:19:34.010Z,21.20
2022-08-26T21:22:02.089Z,21.20
2022-08-26T21:24:30.187Z,21.10
2022-08-26T21:26:58.260Z,21.20
2022-08-26T21:29:27.709Z,21.20
2022-08-26T21:31:55.856Z,21.20
2022-08-26T21:34:23.984Z,21.20
2022-08-26T21:36:52.087Z,21.20
2022-08-26T21:39:20.327Z,21.10
2022-08-26T21:41:48.565Z,21.10
2022-08-26T21:44:18.604Z,21.10
2022-08-26T21:46:49.019Z,21.10
2022-08-26T21:49:17.879Z,21.10
2022-08-26T21:51:48.852Z,21.20
2022-08-26T21:58:49.045Z,21.10
2022-08-26T22:01:22.656Z,21.20
2022-08-26T22:03:53.431Z,21.20
2022-08-26T22:06:28.716Z,21.20
2022-08-26T22:08:57.326Z,21.20
2022-08-26T22:11:26.150Z,21.10
2022-08-26T22:13:55.205Z,21.20
2022-08-26T22:16:23.387Z,21.20
2022-08-26T22:18:53.329Z,21.20
2022-08-26T22:21:24.624Z,21.20
2022-08-26T22:23:58.014Z,21.20
2022-08-26T22:26:28.693Z,21.20
2022-08-26T22:28:59.091Z,21.20
2022-08-26T22:31:37.988Z,21.20
2022-08-26T22:34:09.578Z,21.20
2022-08-26T22:36:42.941Z,21.20
2022-08-26T22:39:13.049Z,21.30
2022-08-26T22:41:42.058Z,21.30
2022-08-26T22:44:10.518Z,21.30
2022-08-26T22:46:39.192Z,21.20
2022-08-26T22:49:10.178Z,21.00
2022-08-26T22:51:38.274Z,20.90
2022-08-26T22:54:06.745Z,20.80
2022-08-26T22:56:34.979Z,20.90
2022-08-26T22:59:03.153Z,20.90
2022-08-26T23:01:31.775Z,20.90
2022-08-26T23:03:59.902Z,20.80
2022-08-26T23:06:29.310Z,20.80
2022-08-26T23:08:57.384Z,20.80
2022-08-26T23:11:25.440Z,20.80
2022-08-26T23:13:53.485Z,20.70
2022-08-26T23:16:21.595Z,20.70
2022-08-26T23:18:50.321Z,20.60
2022-08-26T23:21:18.437Z,20.60
2022-08-26T23:23:47.867Z,20.60
2022-08-26T23:26:17.776Z,20.70
2022-08-26T23:28:47.030Z,20.70
2022-08-26T23:31:15.362Z,20.70
2022-08-26T23:34:00.932Z,20.70
2022-08-26T23:36:31.176Z,20.80
2022-08-26T23:39:05.853Z,20.90
2022-08-26T23:41:35.678Z,20.90
2022-08-26T23:44:05.345Z,21.00
2022-08-26T23:46:34.476Z,21.00
2022-08-26T23:49:04.061Z,21.00
2022-08-26T23:51:49.470Z,21.00
2022-08-26T23:54:19.542Z,21.10
2022-08-26T23:56:48.219Z,21.00
2022-08-26T23:59:16.677Z,21.00
